createdAt,value
2023-04-12T00:01:02.772Z,15.88
2023-04-12T00:03:34.913Z,10.30
2023-04-12T00:06:06.204Z,10.55
2023-04-12T00:08:39.644Z,10.10
2023-04-12T00:11:17.977Z,14.20
2023-04-12T00:13:47.466Z,9.75
2023-04-12T00:19:04.201Z,8.13
2023-04-12T00:21:35.114Z,9.52
2023-04-12T00:24:06.491Z,8.95
2023-04-12T00:26:35.262Z,11.73
2023-04-12T00:29:05.000Z,16.40
2023-04-12T00:31:33.594Z,9.52
2023-04-12T00:34:02.209Z,9.48
2023-04-12T00:36:32.663Z,10.18
2023-04-12T00:39:11.554Z,9.48
2023-04-12T00:44:34.947Z,6.10
2023-04-12T00:47:53.884Z,6.20
2023-04-12T00:50:26.860Z,7.75
2023-04-12T00:52:59.284Z,7.80
2023-04-12T00:55:30.089Z,6.38
2023-04-12T00:57:57.919Z,6.00
2023-04-12T01:00:29.045Z,7.68
2023-04-12T01:02:57.244Z,9.55
2023-04-12T01:05:40.365Z,5.13
2023-04-12T01:11:02.655Z,5.68
2023-04-12T01:14:00.306Z,6.47
2023-04-12T01:16:46.243Z,7.18
2023-04-12T01:19:54.265Z,5.32
2023-04-12T01:22:38.844Z,9.45
2023-04-12T01:25:43.488Z,8.57
2023-04-12T01:28:14.759Z,7.85
2023-04-12T01:30:45.011Z,3.72
2023-04-12T01:33:15.933Z,6.00
2023-04-12T01:35:50.932Z,4.68
2023-04-12T01:38:21.245Z,6.03
2023-04-12T01:40:56.582Z,5.82
2023-04-12T01:43:33.323Z,7.72
2023-04-12T01:46:02.955Z,7.80
2023-04-12T01:48:32.895Z,5.53
2023-04-12T01:51:35.666Z,7.13
2023-04-12T01:54:32.812Z,6.38
2023-04-12T01:57:11.726Z,5.00
2023-04-12T01:59:43.273Z,5.07
2023-04-12T02:02:17.815Z,9.85
2023-04-12T02:04:49.521Z,6.60
2023-04-12T02:07:20.715Z,8.30
2023-04-12T02:09:48.507Z,8.27
2023-04-12T02:12:19.053Z,3.92
2023-04-12T02:14:52.082Z,6.07
2023-04-12T02:17:29.041Z,9.15
2023-04-12T02:19:58.897Z,7.20
2023-04-12T02:22:27.893Z,5.78
2023-04-12T02:25:04.053Z,5.32
2023-04-12T02:27:32.088Z,8.30
2023-04-12T02:30:02.809Z,8.70
2023-04-12T02:33:09.530Z,6.60
2023-04-12T02:35:39.456Z,7.32
2023-04-12T02:38:08.757Z,8.25
2023-04-12T02:40:42.697Z,7.93
2023-04-12T02:43:10.743Z,6.78
2023-04-12T02:45:51.126Z,5.05
2023-04-12T02:48:21.009Z,8.65
2023-04-12T02:50:49.119Z,10.95
2023-04-12T02:53:17.129Z,6.72
2023-04-12T02:55:45.013Z,6.43
2023-04-12T02:58:13.341Z,6.72
2023-04-12T03:00:42.530Z,8.80
2023-04-12T03:03:10.104Z,8.68
2023-04-12T03:05:40.615Z,13.40
2023-04-12T03:08:17.133Z,10.82
2023-04-12T03:10:48.454Z,6.50
2023-04-12T03:13:18.361Z,5.82
2023-04-12T03:15:50.405Z,6.20
2023-04-12T03:18:23.180Z,7.37
2023-04-12T03:23:29.580Z,9.05
2023-04-12T03:26:00.513Z,5.57
2023-04-12T03:28:43.653Z,8.23
2023-04-12T03:31:13.309Z,9.40
2023-04-12T03:33:42.783Z,4.03
2023-04-12T03:36:32.773Z,6.00
2023-04-12T03:39:15.338Z,6.40
2023-04-12T03:41:48.327Z,3.70
2023-04-12T03:44:19.103Z,4.18
2023-04-12T03:46:48.488Z,7.88
2023-04-12T03:49:17.304Z,6.05
2023-04-12T03:51:48.555Z,5.97
2023-04-12T03:54:17.022Z,4.38
2023-04-12T03:56:48.004Z,5.07
2023-04-12T03:59:22.871Z,5.63
2023-04-12T04:01:57.843Z,6.32
2023-04-12T04:04:30.473Z,5.95
2023-04-12T04:07:30.000Z,5.35
2023-04-12T04:10:12.730Z,4.25
2023-04-12T04:12:42.057Z,5.43
2023-04-12T04:15:22.681Z,6.82
2023-04-12T04:17:51.745Z,4.93
2023-04-12T04:20:20.645Z,7.03
2023-04-12T04:23:11.568Z,5.32
2023-04-12T04:25:49.488Z,5.47
2023-04-12T04:28:19.405Z,6.68
2023-04-12T04:30:49.036Z,5.05
2023-04-12T04:33:32.755Z,5.82
2023-04-12T04:36:11.565Z,5.75
2023-04-12T04:38:50.018Z,7.60
2023-04-12T04:41:19.098Z,6.75
2023-04-12T04:43:54.714Z,6.32
2023-04-12T04:46:27.241Z,6.28
2023-04-12T04:49:21.078Z,8.07
2023-04-12T04:51:50.409Z,8.32
2023-04-12T04:57:40.086Z,7.05
2023-04-12T05:00:14.323Z,5.95
2023-04-12T05:02:43.813Z,8.85
2023-04-12T05:05:16.201Z,6.18
2023-04-12T05:07:44.028Z,7.82
2023-04-12T05:10:11.846Z,8.13
2023-04-12T05:12:39.809Z,10.20
2023-04-12T05:15:17.208Z,9.95
2023-04-12T05:17:52.578Z,11.27
2023-04-12T05:20:27.834Z,8.27
2023-04-12T05:23:00.325Z,12.10
2023-04-12T05:25:41.465Z,10.77
2023-04-12T05:28:29.276Z,16.10
2023-04-12T05:31:10.177Z,14.10
2023-04-12T05:33:38.144Z,15.40
2023-04-12T05:39:00.943Z,17.23
2023-04-12T05:47:02.025Z,19.33
2023-04-12T05:49:32.845Z,18.10
2023-04-12T05:52:20.647Z,17.20
2023-04-12T05:54:48.472Z,14.45
2023-04-12T05:57:20.180Z,21.15
2023-04-12T05:59:47.795Z,20.35
2023-04-12T06:02:32.393Z,22.75
2023-04-12T06:05:07.137Z,21.73
2023-04-12T06:07:35.854Z,20.40
2023-04-12T06:10:10.293Z,23.50
2023-04-12T06:12:49.224Z,27.17
2023-04-12T06:15:49.779Z,18.52
2023-04-12T06:18:20.736Z,19.75
2023-04-12T06:20:50.555Z,20.27
2023-04-12T06:23:21.667Z,30.05
2023-04-12T06:25:50.584Z,27.75
2023-04-12T06:28:18.250Z,25.25
2023-04-12T06:30:46.175Z,23.88
2023-04-12T06:33:13.870Z,28.45
2023-04-12T06:35:47.847Z,32.47
2023-04-12T06:38:20.588Z,32.72
2023-04-12T06:40:51.903Z,34.83
2023-04-12T06:43:20.618Z,37.20
2023-04-12T06:45:52.993Z,42.95
2023-04-12T06:48:27.326Z,31.95
2023-04-12T06:50:58.406Z,31.50
2023-04-12T06:56:51.042Z,34.83
2023-04-12T06:59:26.508Z,33.38
2023-04-12T07:02:00.728Z,41.67
2023-04-12T07:04:50.744Z,39.63
2023-04-12T07:07:24.402Z,33.97
2023-04-12T07:13:08.361Z,36.25
2023-04-12T07:15:39.277Z,36.40
2023-04-12T07:18:13.323Z,36.00
2023-04-12T07:20:52.621Z,40.15
2023-04-12T07:23:33.848Z,37.03
2023-04-12T07:26:13.519Z,46.83
2023-04-12T07:28:47.555Z,49.30
2023-04-12T07:31:33.494Z,43.13
2023-04-12T07:34:11.636Z,36.90
2023-04-12T07:40:31.540Z,38.25
2023-04-12T07:42:59.808Z,34.47
2023-04-12T07:45:37.054Z,38.03
2023-04-12T07:48:10.678Z,34.67
2023-04-12T07:56:34.678Z,44.20
2023-04-12T07:59:05.656Z,39.47
2023-04-12T08:07:30.126Z,39.35
2023-04-12T08:09:59.198Z,53.85
2023-04-12T08:15:20.686Z,38.92
2023-04-12T08:17:52.791Z,37.38
2023-04-12T08:20:27.519Z,31.35
2023-04-12T08:23:01.436Z,28.35
2023-04-12T08:25:38.484Z,27.92
2023-04-12T08:28:17.886Z,26.30
2023-04-12T08:30:54.885Z,34.28
2023-04-12T08:33:34.785Z,30.90
2023-04-12T08:36:34.503Z,32.50
2023-04-12T08:41:58.507Z,27.40
2023-04-12T08:44:42.196Z,35.72
2023-04-12T08:47:13.233Z,45.63
2023-04-12T08:49:41.690Z,41.50
2023-04-12T08:52:11.124Z,41.70
2023-04-12T08:54:39.040Z,34.03
2023-04-12T08:57:10.628Z,30.33
2023-04-12T08:59:39.499Z,36.10
2023-04-12T09:02:07.378Z,33.05
2023-04-12T09:04:35.355Z,36.47
2023-04-12T09:07:11.673Z,30.77
2023-04-12T09:09:47.781Z,26.05
2023-04-12T09:12:15.954Z,32.03
2023-04-12T09:14:45.094Z,30.48
2023-04-12T09:17:23.862Z,27.98
2023-04-12T09:19:51.880Z,26.08
2023-04-12T09:22:19.488Z,29.40
2023-04-12T09:24:50.368Z,27.35
2023-04-12T09:27:21.304Z,28.98
2023-04-12T09:29:53.362Z,27.50
2023-04-12T09:32:30.445Z,21.87
2023-04-12T09:35:25.249Z,26.73
2023-04-12T09:38:10.591Z,28.00
2023-04-12T09:40:39.546Z,30.70
2023-04-12T09:43:18.528Z,23.65
2023-04-12T09:45:46.038Z,29.10
2023-04-12T09:48:26.143Z,22.90
2023-04-12T09:51:01.746Z,25.98
2023-04-12T09:53:38.330Z,20.42
2023-04-12T09:56:08.409Z,24.67
2023-04-12T09:58:38.320Z,24.20
2023-04-12T10:01:07.808Z,23.75
2023-04-12T10:03:41.958Z,23.40
2023-04-12T10:06:19.477Z,20.83
2023-04-12T10:08:47.777Z,20.33
2023-04-12T10:11:16.276Z,21.27
2023-04-12T10:13:49.501Z,23.30
2023-04-12T10:16:18.932Z,27.55
2023-04-12T10:18:47.587Z,19.30
2023-04-12T10:21:22.027Z,28.42
2023-04-12T10:23:57.501Z,24.42
2023-04-12T10:26:45.233Z,24.40
2023-04-12T10:29:41.204Z,18.98
2023-04-12T10:32:25.425Z,20.25
2023-04-12T10:35:09.335Z,17.48
2023-04-12T10:38:09.573Z,21.52
2023-04-12T10:40:39.337Z,18.63
2023-04-12T10:43:43.295Z,19.13
2023-04-12T11:44:00.334Z,12.00
2023-04-12T11:49:40.558Z,13.27
2023-04-12T12:14:49.913Z,10.77
2023-04-12T12:17:17.858Z,14.88
2023-04-12T12:19:46.716Z,16.15
2023-04-12T12:22:16.616Z,15.48
2023-04-12T12:24:57.082Z,12.40
2023-04-12T12:27:34.059Z,13.27
2023-04-12T12:30:05.365Z,12.40
2023-04-12T12:32:37.789Z,11.88
2023-04-12T12:35:10.544Z,8.50
2023-04-12T12:37:38.488Z,16.23
2023-04-12T12:40:13.740Z,13.55
2023-04-12T12:42:55.559Z,10.45
2023-04-12T12:45:25.373Z,17.20
2023-04-12T12:48:08.130Z,15.85
2023-04-12T12:50:36.819Z,14.60
2023-04-12T12:53:10.789Z,11.45
2023-04-12T12:58:51.746Z,12.20
2023-04-12T13:01:19.928Z,12.32
2023-04-12T13:03:47.532Z,11.30
2023-04-12T13:06:15.253Z,10.60
2023-04-12T13:08:43.259Z,11.07
2023-04-12T13:11:11.747Z,13.10
2023-04-12T13:13:42.916Z,7.47
2023-04-12T13:16:19.603Z,6.47
2023-04-12T13:18:46.950Z,6.68
2023-04-12T13:21:16.848Z,4.63
2023-04-12T13:23:50.770Z,4.65
2023-04-12T13:26:19.391Z,5.38
2023-04-12T13:28:49.955Z,3.13
2023-04-12T13:31:20.541Z,5.43
2023-04-12T13:33:47.960Z,5.78
2023-04-12T13:36:16.139Z,4.43
2023-04-12T13:38:45.572Z,4.97
2023-04-12T13:41:13.773Z,6.50
2023-04-12T13:43:42.129Z,4.38
2023-04-12T13:46:09.717Z,3.83
2023-04-12T13:48:41.091Z,8.35
2023-04-12T13:51:13.277Z,5.45
2023-04-12T13:53:49.908Z,7.30
2023-04-12T13:56:22.108Z,7.22
2023-04-12T13:58:49.512Z,7.88
2023-04-12T14:01:18.230Z,6.32
2023-04-12T14:03:48.977Z,5.45
2023-04-12T14:06:23.245Z,6.45
2023-04-12T14:08:54.312Z,7.70
2023-04-12T14:11:27.508Z,6.15
2023-04-12T14:13:58.647Z,7.63
2023-04-12T14:16:41.291Z,5.53
2023-04-12T14:19:09.610Z,6.07
2023-04-12T14:21:46.020Z,4.95
2023-04-12T14:24:23.644Z,2.97
2023-04-12T14:26:53.811Z,4.13
2023-04-12T14:29:21.268Z,4.80
2023-04-12T14:31:48.936Z,4.13
2023-04-12T14:34:26.101Z,4.28
2023-04-12T14:36:53.494Z,4.50
2023-04-12T14:39:21.038Z,3.72
2023-04-12T14:41:48.750Z,3.55
2023-04-12T14:44:18.160Z,3.10
2023-04-12T14:46:49.055Z,5.35
2023-04-12T14:49:19.366Z,3.47
2023-04-12T14:51:47.058Z,4.60
2023-04-12T14:54:16.373Z,4.50
2023-04-12T14:56:51.447Z,2.97
2023-04-12T14:59:23.553Z,5.65
2023-04-12T15:01:53.451Z,4.68
2023-04-12T15:04:25.706Z,4.55
2023-04-12T15:06:53.267Z,2.35
2023-04-12T15:09:33.968Z,3.40
2023-04-12T15:12:02.317Z,2.60
2023-04-12T15:14:31.921Z,6.03
2023-04-12T15:17:00.823Z,6.95
2023-04-12T15:19:31.271Z,4.47
2023-04-12T15:22:00.310Z,3.00
2023-04-12T15:24:28.084Z,6.78
2023-04-12T15:26:57.390Z,3.55
2023-04-12T15:29:58.480Z,6.97
2023-04-12T15:32:29.027Z,5.10
2023-04-12T15:35:04.722Z,5.90
2023-04-12T15:37:57.955Z,7.47
2023-04-12T15:40:28.133Z,7.53
2023-04-12T15:42:55.672Z,6.97
2023-04-12T15:45:23.354Z,9.63
2023-04-12T15:48:08.554Z,14.57
2023-04-12T15:50:37.138Z,14.25
2023-04-12T15:53:17.509Z,10.50
2023-04-12T15:56:03.672Z,10.82
2023-04-12T15:58:38.312Z,14.77
2023-04-12T16:01:07.218Z,9.00
2023-04-12T16:03:36.985Z,7.07
2023-04-12T16:06:06.024Z,7.70
2023-04-12T16:09:04.689Z,8.90
2023-04-12T16:11:37.083Z,11.18
2023-04-12T16:14:11.232Z,12.00
2023-04-12T16:16:40.469Z,7.45
2023-04-12T16:19:10.836Z,6.30
2023-04-12T16:22:01.310Z,11.10
2023-04-12T16:24:55.383Z,8.55
2023-04-12T16:27:42.221Z,8.73
2023-04-12T16:30:17.124Z,6.22
2023-04-12T16:32:48.416Z,9.77
2023-04-12T16:35:19.590Z,9.65
2023-04-12T16:37:48.908Z,12.23
2023-04-12T16:40:17.371Z,6.38
2023-04-12T16:42:46.612Z,9.40
2023-04-12T16:45:15.250Z,10.32
2023-04-12T16:47:43.198Z,8.23
2023-04-12T16:50:13.793Z,7.18
2023-04-12T16:52:41.968Z,8.13
2023-04-12T16:55:13.564Z,7.25
2023-04-12T16:57:53.544Z,7.03
2023-04-12T17:00:25.365Z,7.28
2023-04-12T17:06:00.482Z,10.55
2023-04-12T17:08:28.978Z,10.13
2023-04-12T17:10:57.443Z,10.73
2023-04-12T17:13:36.190Z,10.75
2023-04-12T17:16:04.050Z,7.55
2023-04-12T17:18:34.951Z,9.02
2023-04-12T17:21:02.774Z,9.38
2023-04-12T17:23:30.723Z,10.52
2023-04-12T17:26:00.502Z,8.50
2023-04-12T17:28:29.179Z,8.88
2023-04-12T17:30:57.778Z,11.88
2023-04-12T17:33:29.981Z,5.40
2023-04-12T17:35:58.104Z,9.70
2023-04-12T17:38:32.903Z,8.18
2023-04-12T17:41:12.366Z,7.88
2023-04-12T17:43:50.509Z,9.88
2023-04-12T17:46:26.917Z,7.00
2023-04-12T17:51:43.989Z,8.77
2023-04-12T17:54:16.723Z,6.50
2023-04-12T17:59:35.919Z,9.38
2023-04-12T18:04:46.273Z,10.75
2023-04-12T18:07:22.786Z,9.70
2023-04-12T18:09:51.612Z,10.10
2023-04-12T18:12:20.753Z,11.02
2023-04-12T18:14:49.046Z,8.98
2023-04-12T18:17:31.930Z,7.05
2023-04-12T18:20:33.311Z,10.32
2023-04-12T18:23:11.756Z,10.20
2023-04-12T18:25:50.576Z,7.97
2023-04-12T18:28:18.469Z,9.93
2023-04-12T18:33:32.162Z,10.75
2023-04-12T18:35:59.789Z,13.95
2023-04-12T18:38:33.955Z,8.40
2023-04-12T18:41:07.287Z,10.00
2023-04-12T18:43:35.820Z,12.93
2023-04-12T18:46:04.285Z,12.63
2023-04-12T18:48:32.928Z,9.10
2023-04-12T18:51:01.120Z,9.57
2023-04-12T18:53:28.825Z,8.52
2023-04-12T18:55:57.316Z,10.23
2023-04-12T18:58:25.222Z,9.07
2023-04-12T19:00:56.913Z,10.82
2023-04-12T19:03:28.684Z,7.90
2023-04-12T19:05:58.120Z,11.23
2023-04-12T19:08:29.106Z,12.65
2023-04-12T19:10:57.206Z,5.32
2023-04-12T19:13:26.361Z,5.97
2023-04-12T19:15:57.058Z,15.30
2023-04-12T19:18:26.925Z,8.50
2023-04-12T19:20:54.411Z,10.80
2023-04-12T19:23:25.602Z,8.32
2023-04-12T19:25:53.892Z,5.78
2023-04-12T19:28:21.811Z,10.13
2023-04-12T19:30:49.924Z,11.20
2023-04-12T19:33:19.431Z,7.65
2023-04-12T19:35:49.105Z,7.85
2023-04-12T19:38:16.973Z,9.20
2023-04-12T19:40:44.573Z,8.65
2023-04-12T19:43:18.114Z,7.65
2023-04-12T19:45:47.042Z,6.10
2023-04-12T19:48:16.792Z,6.80
2023-04-12T19:50:47.925Z,7.55
2023-04-12T19:53:27.166Z,9.65
2023-04-12T19:55:57.367Z,11.23
2023-04-12T19:58:44.838Z,7.70
2023-04-12T20:01:18.894Z,6.95
2023-04-12T20:03:48.212Z,16.33
2023-04-12T20:06:16.605Z,8.43
2023-04-12T20:08:47.905Z,6.65
2023-04-12T20:11:23.494Z,6.15
2023-04-12T20:13:53.869Z,7.22
2023-04-12T20:16:21.345Z,5.63
2023-04-12T20:18:51.042Z,9.80
2023-04-12T20:21:19.200Z,5.18
2023-04-12T20:23:47.344Z,6.05
2023-04-12T20:26:18.165Z,6.38
2023-04-12T20:28:49.510Z,6.18
2023-04-12T20:31:30.479Z,4.13
2023-04-12T20:34:05.984Z,5.88
2023-04-12T20:36:46.079Z,5.63
2023-04-12T20:39:18.103Z,6.10
2023-04-12T20:41:52.801Z,3.70
2023-04-12T20:44:26.046Z,3.70
2023-04-12T20:47:05.813Z,5.65
2023-04-12T20:49:51.032Z,6.72
2023-04-12T20:52:38.166Z,6.47
2023-04-12T20:55:22.592Z,4.00
2023-04-12T20:58:05.340Z,3.88
2023-04-12T21:00:49.980Z,4.38
2023-04-12T21:03:50.627Z,5.03
2023-04-12T21:06:28.135Z,5.70
2023-04-12T21:09:12.973Z,3.30
2023-04-12T21:14:10.910Z,5.07
2023-04-12T21:16:44.980Z,3.75
2023-04-12T21:19:25.666Z,5.50
2023-04-12T21:22:16.225Z,6.03
2023-04-12T21:24:49.203Z,6.05
2023-04-12T21:30:08.584Z,3.33
2023-04-12T21:35:44.649Z,5.30
2023-04-12T21:38:20.891Z,4.35
2023-04-12T21:41:10.727Z,7.40
2023-04-12T21:43:44.741Z,6.80
2023-04-12T21:46:21.929Z,4.22
2023-04-12T21:48:49.235Z,3.53
2023-04-12T21:51:17.072Z,4.10
2023-04-12T21:56:28.461Z,3.53
2023-04-12T21:59:07.101Z,7.40
2023-04-12T22:01:34.907Z,3.97
2023-04-12T22:04:04.751Z,2.58
2023-04-12T22:06:35.000Z,4.75
2023-04-12T22:09:07.839Z,4.30
2023-04-12T22:14:19.491Z,5.97
2023-04-12T22:16:54.213Z,4.63
2023-04-12T22:19:24.760Z,2.97
2023-04-12T22:21:55.607Z,3.03
2023-04-12T22:24:24.032Z,4.90
2023-04-12T22:26:51.992Z,5.13
2023-04-12T22:29:24.539Z,3.10
2023-04-12T22:31:54.091Z,1.88
2023-04-12T22:34:21.879Z,3.70
2023-04-12T22:37:00.439Z,4.10
2023-04-12T22:39:38.356Z,2.03
2023-04-12T22:42:06.459Z,3.13
2023-04-12T22:44:47.369Z,3.03
2023-04-12T22:47:16.070Z,4.95
2023-04-12T22:50:03.236Z,2.78
2023-04-12T22:52:33.906Z,5.20
2023-04-12T22:55:02.948Z,2.88
2023-04-12T22:57:36.969Z,3.45
2023-04-12T23:00:10.477Z,5.18
2023-04-12T23:02:47.183Z,5.95
2023-04-12T23:05:14.756Z,2.80
2023-04-12T23:07:43.774Z,3.97
2023-04-12T23:10:13.019Z,2.75
2023-04-12T23:12:46.134Z,4.78
2023-04-12T23:15:23.525Z,5.72
2023-04-12T23:17:54.950Z,4.55
2023-04-12T23:20:22.917Z,4.88
2023-04-12T23:22:58.166Z,5.05
2023-04-12T23:25:38.633Z,3.08
2023-04-12T23:28:14.021Z,4.32
2023-04-12T23:30:49.359Z,6.55
2023-04-12T23:33:20.938Z,4.60
2023-04-12T23:35:53.199Z,4.55
2023-04-12T23:38:24.481Z,3.88
2023-04-12T23:41:04.226Z,5.43
2023-04-12T23:48:44.539Z,4.15
2023-04-12T23:51:30.297Z,5.72
2023-04-12T23:54:00.796Z,4.85
2023-04-12T23:56:28.233Z,5.05
2023-04-12T23:58:55.862Z,5.65
